KENW/ENW METAR and TAF weather

Enter ICAO airport designator
Station Type Date Time Source
KENW METAR 2018/12/19 09:53 UTC NOAA

KENW 190953Z AUTO 21007KT 10SM CLR 01/M03 A2990 RMK AO2 SLP132 T00061028


Station Type Date Time Source
KENW Decoded METAR 2018/12/19 09:53 UTC NOAA

KENOSHA REGIONAL AIRPORT, WI, United States (KENW) 42-36N 087-56W 219M
Dec 19, 2018 - 04:53 AM EST / 2018.12.19 0953 UTC
Wind: from the SSW (210 degrees) at 8 MPH (7 KT):0
Visibility: 10 mile(s):0
Sky conditions: clear
Temperature: 33.1 F (0.6 C)
Windchill: 26 F (-3 C):1
Dew Point: 27.0 F (-2.8 C)
Relative Humidity: 77%
Pressure (altimeter): 29.9 in. Hg (1012 hPa)
ob: KENW 190953Z AUTO 21007KT 10SM CLR 01/M03 A2990 RMK AO2 SLP132 T00061028
cycle: 10

Station Type Date Time Source
KENW TAF 2018/12/19 06:22 UTC NOAA

TAF KENW 190520Z 1906/2006 21007KT P6SM SCT250
FM191500 20012KT P6SM BKN120
FM200000 20007KT P6SM BKN080


Example: see airport list